Time;durP1;ratioP1;P1;durP2;ratioP2;P2;SDS_P1;SDS_P2;PMS_P1;PMS_P2;Temp;Humidity;BMP_temperature;BMP_pressure;BME280_temperature;BME280_humidity;BME280_pressure;Samples;Min_cycle;Max_cycle;Signal;HPM_P1;HPM_P2
2022/07/22 00:00:35;;;;;;;4.93;3.53;;;22.00;99.90;;;;;;4256997;27;20288;-73
2022/07/22 00:02:37;;;;;;;6.50;3.60;;;22.00;99.90;;;;;;4252485;27;20192;-74
2022/07/22 00:04:38;;;;;;;5.37;3.90;;;22.00;99.90;;;;;;4263766;27;20679;-72
2022/07/22 00:06:40;;;;;;;4.20;3.50;;;22.00;99.90;;;;;;4263015;27;20203;-72
2022/07/22 00:08:42;;;;;;;3.93;3.37;;;22.00;99.90;;;;;;4253661;27;20718;-72
2022/07/22 00:10:44;;;;;;;4.80;3.87;;;22.00;99.90;;;;;;4258670;27;20212;-72
2022/07/22 00:12:46;;;;;;;4.27;3.43;;;21.90;99.90;;;;;;4262251;27;20214;-72
2022/07/22 00:14:48;;;;;;;5.73;3.90;;;21.90;99.90;;;;;;4240693;27;20248;-72
2022/07/22 00:16:51;;;;;;;5.07;3.77;;;21.90;99.90;;;;;;4255101;27;20292;-73
2022/07/22 00:18:53;;;;;;;4.53;3.60;;;21.90;99.90;;;;;;4242866;27;20263;-73
2022/07/22 00:20:55;;;;;;;5.00;3.57;;;21.90;99.90;;;;;;4257815;27;20532;-74
2022/07/22 00:22:57;;;;;;;5.27;3.47;;;21.80;99.90;;;;;;4256967;27;20200;-74
2022/07/22 00:24:59;;;;;;;4.60;3.47;;;21.90;99.90;;;;;;4259068;27;20211;-74
2022/07/22 00:27:01;;;;;;;4.57;3.60;;;21.80;99.90;;;;;;4258461;27;20200;-73
2022/07/22 00:29:03;;;;;;;4.73;3.80;;;21.80;99.90;;;;;;4263113;27;20223;-73
2022/07/22 00:31:05;;;;;;;4.43;3.50;;;21.80;99.90;;;;;;4258485;27;20609;-73
2022/07/22 00:33:08;;;;;;;4.13;3.73;;;21.80;99.90;;;;;;4257643;27;20229;-74
2022/07/22 00:35:10;;;;;;;5.73;3.60;;;21.70;99.90;;;;;;4251486;27;20568;-72
2022/07/22 00:37:12;;;;;;;6.13;4.23;;;21.60;99.90;;;;;;4252960;27;20707;-73
2022/07/22 00:39:15;;;;;;;4.63;3.57;;;21.60;99.90;;;;;;4256935;27;20235;-74
2022/07/22 00:41:16;;;;;;;5.27;3.43;;;21.60;99.90;;;;;;4253513;27;20237;-74
2022/07/22 00:43:18;;;;;;;6.17;3.83;;;21.50;99.90;;;;;;4254951;27;20282;-74
2022/07/22 00:45:20;;;;;;;5.97;4.10;;;21.50;99.90;;;;;;4259344;27;20599;-73
2022/07/22 00:47:22;;;;;;;5.40;3.70;;;21.50;99.90;;;;;;4257310;27;20195;-73
2022/07/22 00:49:25;;;;;;;4.67;3.93;;;21.50;99.90;;;;;;4258573;27;20371;-73
2022/07/22 00:51:29;;;;;;;5.03;3.57;;;21.40;99.90;;;;;;4257970;27;20207;-73
2022/07/22 00:53:31;;;;;;;4.57;3.63;;;21.40;99.90;;;;;;4239969;27;20215;-73
2022/07/22 00:55:34;;;;;;;5.13;3.57;;;21.40;99.90;;;;;;4257542;27;20207;-73
2022/07/22 00:57:36;;;;;;;4.53;3.73;;;21.40;99.90;;;;;;4244110;27;20284;-74
2022/07/22 00:59:38;;;;;;;4.43;3.90;;;21.30;99.90;;;;;;4254036;27;20222;-74
2022/07/22 01:01:40;;;;;;;5.10;3.60;;;21.30;99.90;;;;;;4257248;27;20200;-73
2022/07/22 01:03:42;;;;;;;4.77;3.53;;;21.30;99.90;;;;;;4253464;27;20820;-72
2022/07/22 01:05:45;;;;;;;5.10;4.03;;;21.20;99.90;;;;;;4259498;27;20198;-72
2022/07/22 01:07:47;;;;;;;5.17;4.10;;;21.20;99.90;;;;;;4257987;27;20195;-72
2022/07/22 01:09:49;;;;;;;6.27;3.90;;;21.20;99.90;;;;;;4242320;27;20258;-72
2022/07/22 01:11:51;;;;;;;4.73;3.90;;;21.20;99.90;;;;;;4236762;27;20667;-74
2022/07/22 01:13:54;;;;;;;6.27;4.00;;;21.20;99.90;;;;;;4258305;27;20791;-74
2022/07/22 01:15:56;;;;;;;4.90;3.93;;;21.10;99.90;;;;;;4259783;27;20197;-74
2022/07/22 01:17:58;;;;;;;5.53;3.80;;;21.10;99.90;;;;;;4256976;27;20213;-74
2022/07/22 01:20:06;;;;;;;5.47;3.83;;;21.00;99.90;;;;;;4258220;27;20208;-73
2022/07/22 01:22:08;;;;;;;6.60;3.87;;;21.00;99.90;;;;;;4258270;27;20212;-74
2022/07/22 01:24:10;;;;;;;4.87;3.80;;;21.00;99.90;;;;;;4258071;27;20255;-73
2022/07/22 01:26:12;;;;;;;5.17;3.87;;;20.90;99.90;;;;;;4242031;27;20687;-73
2022/07/22 01:28:14;;;;;;;5.03;4.10;;;20.90;99.90;;;;;;4254012;27;20942;-73
2022/07/22 01:30:16;;;;;;;5.37;4.07;;;20.90;99.90;;;;;;4252439;27;20212;-73
2022/07/22 01:32:17;;;;;;;5.17;3.90;;;20.80;99.90;;;;;;4253518;27;20233;-74
2022/07/22 01:34:19;;;;;;;5.20;3.70;;;20.80;99.90;;;;;;4252671;27;20226;-73
2022/07/22 01:36:23;;;;;;;5.17;3.70;;;20.80;99.90;;;;;;4258319;27;20314;-73
2022/07/22 01:38:25;;;;;;;5.60;3.97;;;20.80;99.90;;;;;;4258262;27;20724;-73
2022/07/22 01:40:27;;;;;;;4.27;3.77;;;20.80;99.90;;;;;;4257174;27;20199;-73
2022/07/22 01:42:34;;;;;;;5.80;3.80;;;20.80;99.90;;;;;;4257796;27;20590;-73
2022/07/22 01:44:36;;;;;;;4.67;3.57;;;20.70;99.90;;;;;;4261501;27;20260;-73
2022/07/22 01:46:39;;;;;;;5.70;3.53;;;20.70;99.90;;;;;;4261009;27;20210;-75
2022/07/22 01:48:41;;;;;;;4.70;3.60;;;20.70;99.90;;;;;;4260628;27;20222;-72
2022/07/22 01:50:43;;;;;;;5.97;4.00;;;20.60;99.90;;;;;;4261361;27;20556;-73
2022/07/22 01:52:46;;;;;;;8.77;4.30;;;20.60;99.90;;;;;;4261371;27;20294;-73
2022/07/22 01:54:48;;;;;;;4.10;3.60;;;20.60;99.90;;;;;;4255174;27;20199;-74
2022/07/22 01:56:50;;;;;;;4.57;3.90;;;20.60;99.90;;;;;;4262806;27;20749;-73
2022/07/22 01:58:52;;;;;;;5.27;4.10;;;20.50;99.90;;;;;;4258003;27;20225;-72
2022/07/22 02:00:54;;;;;;;5.73;4.40;;;20.50;99.90;;;;;;4258238;27;20202;-73
2022/07/22 02:02:56;;;;;;;5.10;3.90;;;20.50;99.90;;;;;;4254025;27;20578;-73
2022/07/22 02:04:58;;;;;;;5.47;4.07;;;20.40;99.90;;;;;;4265496;27;20202;-73
2022/07/22 02:07:00;;;;;;;4.73;4.07;;;20.40;99.90;;;;;;4262617;27;20214;-74
2022/07/22 02:09:03;;;;;;;4.17;3.43;;;20.40;99.90;;;;;;4259540;27;20291;-73
2022/07/22 02:11:06;;;;;;;4.40;3.50;;;20.40;99.90;;;;;;4255062;27;20211;-73
2022/07/22 02:13:07;;;;;;;5.20;3.90;;;20.40;99.90;;;;;;4265614;27;20282;-73
2022/07/22 02:15:10;;;;;;;5.23;4.23;;;20.40;99.90;;;;;;4252142;27;20210;-73
2022/07/22 02:17:13;;;;;;;5.47;3.97;;;20.40;99.90;;;;;;4252397;27;20594;-72
2022/07/22 02:19:15;;;;;;;5.37;4.00;;;20.30;99.90;;;;;;4263788;27;20229;-72
2022/07/22 02:21:16;;;;;;;6.73;4.53;;;20.40;99.90;;;;;;4261482;27;20587;-72
2022/07/22 02:23:18;;;;;;;5.57;4.20;;;20.30;99.90;;;;;;4246392;27;20199;-72
2022/07/22 02:25:22;;;;;;;4.80;4.30;;;20.20;99.90;;;;;;4253398;27;20298;-74
2022/07/22 02:27:23;;;;;;;5.80;4.47;;;20.20;99.90;;;;;;4262100;27;20559;-73
2022/07/22 02:29:25;;;;;;;8.07;4.60;;;20.20;99.90;;;;;;4260183;27;20256;-74
2022/07/22 02:31:28;;;;;;;5.33;4.50;;;20.10;99.90;;;;;;4255665;27;20211;-74
2022/07/22 02:33:29;;;;;;;6.33;4.47;;;20.10;99.90;;;;;;4255796;27;20225;-74
2022/07/22 02:35:31;;;;;;;5.27;4.40;;;20.10;99.90;;;;;;4257641;27;20374;-75
2022/07/22 02:37:33;;;;;;;8.77;4.57;;;20.00;99.90;;;;;;4254974;27;20286;-74
2022/07/22 02:39:35;;;;;;;5.40;4.27;;;19.90;99.90;;;;;;4256769;27;20223;-74
2022/07/22 02:41:39;;;;;;;7.87;4.70;;;19.90;99.90;;;;;;4255215;27;20246;-74
2022/07/22 02:43:41;;;;;;;6.47;4.57;;;19.80;99.90;;;;;;4255219;27;20285;-74
2022/07/22 02:45:42;;;;;;;7.40;4.77;;;19.80;99.90;;;;;;4254404;27;20205;-73
2022/07/22 02:47:49;;;;;;;5.20;4.17;;;19.80;99.90;;;;;;4249971;27;20286;-73
2022/07/22 02:49:51;;;;;;;5.43;4.60;;;19.70;99.90;;;;;;4257563;27;20238;-74
2022/07/22 02:51:53;;;;;;;6.63;4.90;;;19.70;99.90;;;;;;4254685;27;20205;-73
2022/07/22 02:53:55;;;;;;;6.33;4.70;;;19.70;99.90;;;;;;4252017;27;20563;-74
2022/07/22 02:55:57;;;;;;;6.23;4.80;;;19.70;99.90;;;;;;4255079;27;20203;-73
2022/07/22 02:58:05;;;;;;;6.73;5.20;;;19.60;99.90;;;;;;4250471;27;20208;-73
2022/07/22 03:00:09;;;;;;;7.40;5.03;;;19.60;99.90;;;;;;4258531;27;20202;-73
2022/07/22 03:02:14;;;;;;;6.37;4.80;;;19.50;99.90;;;;;;4238781;27;20276;-72
2022/07/22 03:04:16;;;;;;;7.30;5.00;;;19.50;99.90;;;;;;4264606;27;20237;-72
2022/07/22 03:06:17;;;;;;;7.03;5.13;;;19.50;99.90;;;;;;4258129;27;20241;-72
2022/07/22 03:08:19;;;;;;;7.13;5.17;;;19.50;99.90;;;;;;4263440;27;20232;-72
2022/07/22 03:10:22;;;;;;;7.53;5.33;;;19.40;99.90;;;;;;4262100;27;20198;-73
2022/07/22 03:12:24;;;;;;;7.57;5.03;;;19.40;99.90;;;;;;4233464;27;20198;-74
2022/07/22 03:14:27;;;;;;;8.73;5.17;;;19.40;99.90;;;;;;4253868;27;20670;-72
2022/07/22 03:16:29;;;;;;;6.67;5.10;;;19.30;99.90;;;;;;4264533;27;20676;-73
2022/07/22 03:18:31;;;;;;;7.63;5.67;;;19.30;99.90;;;;;;4261262;27;20288;-74
2022/07/22 03:20:34;;;;;;;6.90;5.23;;;19.30;99.90;;;;;;4253360;27;20205;-74
2022/07/22 03:22:36;;;;;;;7.60;5.50;;;19.30;99.90;;;;;;4257281;27;20285;-73
2022/07/22 03:24:38;;;;;;;7.00;5.30;;;19.20;99.90;;;;;;4252991;27;20207;-73
2022/07/22 03:26:40;;;;;;;6.43;5.23;;;19.20;99.90;;;;;;4254247;27;20208;-73
2022/07/22 03:28:42;;;;;;;8.00;5.43;;;19.10;99.90;;;;;;4256506;27;20250;-73
2022/07/22 03:30:45;;;;;;;6.07;5.07;;;19.20;99.90;;;;;;4255608;27;20275;-73
2022/07/22 03:32:47;;;;;;;6.60;5.57;;;19.10;99.90;;;;;;4237606;27;20258;-73
2022/07/22 03:34:49;;;;;;;8.77;5.53;;;19.20;99.90;;;;;;4253345;27;20254;-73
2022/07/22 03:36:51;;;;;;;6.70;5.50;;;19.10;99.90;;;;;;4238217;27;20702;-73
2022/07/22 03:38:53;;;;;;;7.40;5.43;;;19.20;99.90;;;;;;4252250;27;20676;-76
2022/07/22 03:40:55;;;;;;;7.43;5.93;;;19.10;99.90;;;;;;4261576;27;20256;-77
2022/07/22 03:42:57;;;;;;;7.20;5.70;;;19.10;99.90;;;;;;4258956;27;20220;-77
2022/07/22 03:44:59;;;;;;;7.73;5.70;;;19.10;99.90;;;;;;4257341;27;20229;-77
2022/07/22 03:47:02;;;;;;;8.27;5.30;;;19.10;99.90;;;;;;4229294;28;20209;-78
2022/07/22 03:49:04;;;;;;;10.37;6.70;;;19.20;99.90;;;;;;4251382;27;20222;-78
2022/07/22 03:51:06;;;;;;;7.33;5.73;;;19.20;99.90;;;;;;4250749;27;20691;-79
2022/07/22 03:53:08;;;;;;;9.47;6.43;;;19.20;99.90;;;;;;4256406;27;20585;-78
2022/07/22 03:55:10;;;;;;;9.07;5.77;;;19.20;99.90;;;;;;4254520;27;20224;-78
2022/07/22 03:57:12;;;;;;;7.17;5.43;;;19.20;99.90;;;;;;4242301;28;20215;-78
2022/07/22 03:59:14;;;;;;;6.80;5.33;;;19.20;99.90;;;;;;4254512;27;20226;-78
2022/07/22 04:01:16;;;;;;;7.80;5.50;;;19.20;99.90;;;;;;4254733;27;20210;-77
2022/07/22 04:03:19;;;;;;;9.03;5.53;;;19.20;99.90;;;;;;4241272;28;20645;-78
2022/07/22 04:05:21;;;;;;;6.70;4.93;;;19.20;99.90;;;;;;4255515;27;20275;-78
2022/07/22 04:07:24;;;;;;;7.47;5.20;;;19.30;99.90;;;;;;4256939;27;20301;-78
2022/07/22 04:09:26;;;;;;;7.27;5.23;;;19.30;99.90;;;;;;4258243;27;20221;-78
2022/07/22 04:11:28;;;;;;;7.00;5.07;;;19.30;99.90;;;;;;4256307;27;20211;-78
2022/07/22 04:13:30;;;;;;;6.60;5.13;;;19.30;99.90;;;;;;4262766;27;20652;-78
2022/07/22 04:15:32;;;;;;;6.47;5.10;;;19.30;99.90;;;;;;4258072;27;20200;-77
2022/07/22 04:17:34;;;;;;;7.30;5.13;;;19.30;99.90;;;;;;4254405;27;20208;-77
2022/07/22 04:19:37;;;;;;;7.03;5.40;;;19.30;99.90;;;;;;4255082;27;20212;-77
2022/07/22 04:21:39;;;;;;;7.23;5.13;;;19.30;99.90;;;;;;4237658;28;20513;-77
2022/07/22 04:23:41;;;;;;;8.83;5.63;;;19.30;99.90;;;;;;4255848;27;20269;-77
2022/07/22 04:25:44;;;;;;;7.80;5.13;;;19.30;99.90;;;;;;4256040;27;20229;-77
2022/07/22 04:27:46;;;;;;;6.50;5.20;;;19.40;99.90;;;;;;4256218;27;20715;-77
2022/07/22 04:29:47;;;;;;;6.87;4.53;;;19.40;99.90;;;;;;4233978;28;20326;-77
2022/07/22 04:31:49;;;;;;;6.00;4.80;;;19.40;99.90;;;;;;4252213;27;20233;-77
2022/07/22 04:33:51;;;;;;;6.97;4.93;;;19.50;99.90;;;;;;4259644;27;20253;-77
2022/07/22 04:35:54;;;;;;;7.00;5.17;;;19.50;99.90;;;;;;4249336;27;20214;-77
2022/07/22 04:37:56;;;;;;;6.90;5.10;;;19.40;99.90;;;;;;4258340;27;20220;-77
2022/07/22 04:39:58;;;;;;;8.27;5.57;;;19.40;99.90;;;;;;4239735;28;20297;-77
2022/07/22 04:42:00;;;;;;;8.93;5.80;;;19.50;99.90;;;;;;4260733;27;20307;-77
2022/07/22 04:44:02;;;;;;;7.83;5.53;;;19.50;99.90;;;;;;4256327;27;20209;-77
2022/07/22 04:46:05;;;;;;;7.63;5.60;;;19.40;99.90;;;;;;4250045;27;20237;-77
2022/07/22 04:48:07;;;;;;;6.60;5.43;;;19.50;99.90;;;;;;4258532;27;20216;-77
2022/07/22 04:50:09;;;;;;;12.07;5.60;;;19.40;99.90;;;;;;4251502;27;20206;-77
2022/07/22 04:52:13;;;;;;;6.83;5.10;;;19.40;99.90;;;;;;4255904;27;20569;-77
2022/07/22 04:54:15;;;;;;;6.93;5.23;;;19.40;99.90;;;;;;4255826;27;20269;-78
2022/07/22 04:56:17;;;;;;;7.03;5.27;;;19.50;99.90;;;;;;4258550;27;20200;-77
2022/07/22 04:58:19;;;;;;;6.07;4.67;;;19.50;99.90;;;;;;4257918;27;20301;-77
2022/07/22 05:00:22;;;;;;;6.80;5.30;;;19.50;99.90;;;;;;4259489;27;20693;-77
2022/07/22 05:02:24;;;;;;;6.57;5.20;;;19.50;99.90;;;;;;4264252;27;20231;-77
2022/07/22 05:04:26;;;;;;;7.27;5.50;;;19.50;99.90;;;;;;4260349;27;20288;-77
2022/07/22 05:06:28;;;;;;;8.53;5.20;;;19.50;99.90;;;;;;4239125;27;20238;-77
2022/07/22 05:08:31;;;;;;;7.93;5.90;;;19.50;99.90;;;;;;4242058;27;20282;-77
2022/07/22 05:10:33;;;;;;;8.87;5.87;;;19.60;99.90;;;;;;4259077;27;20210;-77
2022/07/22 05:12:35;;;;;;;7.60;5.40;;;19.60;99.90;;;;;;4258483;27;20216;-78
2022/07/22 05:14:37;;;;;;;7.27;5.63;;;19.60;99.90;;;;;;4260583;27;20309;-77
2022/07/22 05:16:39;;;;;;;7.00;4.90;;;19.60;99.90;;;;;;4256073;27;20673;-77
2022/07/22 05:18:41;;;;;;;7.07;5.23;;;19.70;99.90;;;;;;4260910;27;20234;-78
2022/07/22 05:20:43;;;;;;;6.93;4.43;;;19.70;99.90;;;;;;4258777;27;20236;-77
2022/07/22 05:22:45;;;;;;;6.80;5.33;;;19.80;99.90;;;;;;4259090;27;20208;-77
2022/07/22 05:24:48;;;;;;;6.00;4.90;;;19.80;99.90;;;;;;4262113;27;20275;-77
2022/07/22 05:26:50;;;;;;;5.83;4.40;;;19.80;99.90;;;;;;4261299;27;20214;-77
2022/07/22 05:28:52;;;;;;;5.97;4.73;;;19.80;99.90;;;;;;4260703;27;20229;-77
2022/07/22 05:30:54;;;;;;;8.70;4.87;;;19.80;99.90;;;;;;4262229;27;20233;-77
2022/07/22 05:32:55;;;;;;;9.37;4.87;;;19.80;99.90;;;;;;4256464;27;20712;-77
2022/07/22 05:34:57;;;;;;;7.03;4.70;;;19.80;99.90;;;;;;4265548;27;20245;-77
2022/07/22 05:36:59;;;;;;;7.23;4.63;;;19.80;99.90;;;;;;4258009;27;20205;-77
2022/07/22 05:39:01;;;;;;;6.10;4.30;;;19.80;99.90;;;;;;4260083;27;20309;-77
2022/07/22 05:41:05;;;;;;;5.70;4.27;;;19.80;99.90;;;;;;4238146;27;21643;-77
2022/07/22 05:43:07;;;;;;;5.87;4.43;;;19.80;99.90;;;;;;4256409;27;20983;-76
2022/07/22 05:45:10;;;;;;;4.83;3.90;;;19.80;99.90;;;;;;4256162;27;20294;-77
2022/07/22 05:47:12;;;;;;;5.97;3.93;;;19.90;99.90;;;;;;4260497;27;20213;-78
2022/07/22 05:49:16;;;;;;;6.20;4.30;;;19.90;99.90;;;;;;4259145;27;20713;-77
2022/07/22 05:51:18;;;;;;;5.73;4.43;;;19.90;99.90;;;;;;4260196;27;20748;-76
2022/07/22 05:53:20;;;;;;;6.63;4.33;;;19.90;99.90;;;;;;4240039;27;20205;-77
2022/07/22 05:55:21;;;;;;;5.27;4.07;;;19.90;99.90;;;;;;4255998;27;20258;-77
2022/07/22 05:57:25;;;;;;;5.00;3.90;;;19.90;99.90;;;;;;4254129;27;20210;-77
2022/07/22 05:59:26;;;;;;;6.53;4.20;;;20.00;99.90;;;;;;4229866;27;20334;-77
2022/07/22 06:01:28;;;;;;;5.23;4.20;;;20.00;99.90;;;;;;4255434;27;20325;-77
2022/07/22 06:03:30;;;;;;;5.80;4.10;;;20.00;99.90;;;;;;4255488;27;20202;-77
2022/07/22 06:05:32;;;;;;;4.80;3.93;;;20.00;99.90;;;;;;4260387;27;20798;-77
2022/07/22 06:07:34;;;;;;;5.20;4.00;;;20.10;99.90;;;;;;4251388;27;20305;-77
2022/07/22 06:09:36;;;;;;;4.70;3.70;;;20.10;99.90;;;;;;4252535;27;20229;-77
2022/07/22 06:11:38;;;;;;;5.57;4.43;;;20.20;99.90;;;;;;4251509;27;20606;-77
2022/07/22 06:13:41;;;;;;;4.33;3.60;;;20.20;99.90;;;;;;4251990;27;20288;-78
2022/07/22 06:15:43;;;;;;;4.30;3.67;;;20.30;99.90;;;;;;4234374;27;20691;-78
2022/07/22 06:17:45;;;;;;;4.40;3.80;;;20.40;99.90;;;;;;4252294;27;20205;-77
2022/07/22 06:19:47;;;;;;;4.50;3.80;;;20.40;99.90;;;;;;4254993;27;20663;-78
2022/07/22 06:21:49;;;;;;;3.70;3.00;;;20.50;99.90;;;;;;4246454;27;20289;-77
2022/07/22 06:23:51;;;;;;;4.20;3.30;;;20.50;99.90;;;;;;4256907;27;20240;-78
2022/07/22 06:25:53;;;;;;;4.73;3.20;;;20.60;99.90;;;;;;4252577;27;20198;-79
2022/07/22 06:27:54;;;;;;;4.53;3.30;;;20.70;99.90;;;;;;4234359;27;20683;-79
2022/07/22 06:29:58;;;;;;;4.20;3.37;;;20.70;99.90;;;;;;4256623;27;20208;-79
2022/07/22 06:31:59;;;;;;;3.90;2.90;;;20.80;99.90;;;;;;4257141;27;20212;-79
2022/07/22 06:34:05;;;;;;;4.00;3.10;;;20.80;99.90;;;;;;4252101;27;20203;-76
2022/07/22 06:36:07;;;;;;;3.80;2.90;;;20.80;99.90;;;;;;4257762;27;20226;-76
2022/07/22 06:38:10;;;;;;;3.63;3.00;;;20.80;99.90;;;;;;4260199;27;20298;-78
2022/07/22 06:40:12;;;;;;;4.33;3.00;;;20.90;99.90;;;;;;4257811;27;20640;-79
2022/07/22 06:42:15;;;;;;;4.40;2.87;;;20.90;99.90;;;;;;4261242;27;20231;-78
2022/07/22 06:44:16;;;;;;;4.17;2.77;;;20.90;99.90;;;;;;4242175;27;20299;-78
2022/07/22 06:46:20;;;;;;;3.33;2.80;;;20.90;99.90;;;;;;4259452;27;20195;-78
2022/07/22 06:48:22;;;;;;;3.67;2.90;;;21.00;99.90;;;;;;4252424;27;20309;-78
2022/07/22 06:50:24;;;;;;;4.37;2.93;;;21.00;99.90;;;;;;4252750;27;20314;-78
2022/07/22 06:52:26;;;;;;;3.10;2.70;;;21.00;99.90;;;;;;4254690;27;20595;-78
2022/07/22 06:54:28;;;;;;;2.70;2.50;;;21.00;99.90;;;;;;4258578;27;20206;-78
2022/07/22 06:56:30;;;;;;;3.13;2.70;;;21.00;99.90;;;;;;4258490;27;20234;-78
2022/07/22 06:58:32;;;;;;;3.57;2.63;;;21.10;99.90;;;;;;4260595;27;20692;-78
2022/07/22 07:00:34;;;;;;;2.77;2.47;;;21.10;99.90;;;;;;4257457;27;20207;-78
2022/07/22 07:02:38;;;;;;;4.03;3.00;;;21.20;99.90;;;;;;4257245;27;20206;-79
2022/07/22 07:04:39;;;;;;;3.50;2.83;;;21.20;99.90;;;;;;4261172;27;20226;-80
2022/07/22 07:06:41;;;;;;;5.67;3.83;;;21.30;99.90;;;;;;4259978;27;20206;-79
2022/07/22 07:08:43;;;;;;;3.60;3.27;;;21.30;99.90;;;;;;4261378;27;20220;-77
2022/07/22 07:10:45;;;;;;;3.60;2.80;;;21.30;99.90;;;;;;4240193;27;20212;-79
2022/07/22 07:12:48;;;;;;;5.43;3.13;;;21.40;99.90;;;;;;4259321;27;20297;-77
2022/07/22 07:14:50;;;;;;;4.43;3.07;;;21.50;99.90;;;;;;4241853;27;20340;-79
2022/07/22 07:16:52;;;;;;;3.07;2.53;;;21.60;99.90;;;;;;4260480;27;20204;-78
2022/07/22 07:18:55;;;;;;;3.47;2.40;;;21.70;99.90;;;;;;4259156;27;20219;-77
2022/07/22 07:20:57;;;;;;;3.00;2.40;;;21.70;99.90;;;;;;4261021;27;20207;-78
2022/07/22 07:23:01;;;;;;;3.80;2.43;;;21.80;99.90;;;;;;4258599;27;20205;-79
2022/07/22 07:25:04;;;;;;;3.60;2.10;;;21.90;99.90;;;;;;4259607;27;20199;-77
2022/07/22 07:27:06;;;;;;;2.70;2.20;;;21.90;99.90;;;;;;4240425;27;20212;-76
2022/07/22 07:29:08;;;;;;;2.83;2.30;;;21.90;99.90;;;;;;4254615;27;20262;-79
2022/07/22 07:31:10;;;;;;;3.03;2.50;;;21.90;99.90;;;;;;4242113;27;20207;-79
2022/07/22 07:33:12;;;;;;;2.40;2.00;;;21.90;99.90;;;;;;4263067;27;20251;-78
2022/07/22 07:35:16;;;;;;;2.97;2.30;;;21.90;99.90;;;;;;4262540;27;20232;-78
2022/07/22 07:37:18;;;;;;;2.63;2.30;;;21.80;99.90;;;;;;4268845;27;20250;-78
2022/07/22 07:39:20;;;;;;;3.57;2.20;;;21.90;99.90;;;;;;4244391;27;20297;-77
2022/07/22 07:41:22;;;;;;;2.43;2.13;;;21.90;99.90;;;;;;4255405;27;20223;-78
2022/07/22 07:43:24;;;;;;;2.80;2.10;;;21.90;99.90;;;;;;4259833;27;20242;-79
2022/07/22 07:45:26;;;;;;;3.10;2.50;;;21.90;99.90;;;;;;4259938;27;20273;-79
2022/07/22 07:47:28;;;;;;;3.07;2.20;;;21.90;99.90;;;;;;4256796;27;20223;-78
2022/07/22 07:49:30;;;;;;;4.13;2.47;;;22.00;99.90;;;;;;4257852;27;20226;-80
2022/07/22 07:51:33;;;;;;;3.00;2.43;;;22.00;99.90;;;;;;4240612;28;20287;-80
2022/07/22 07:53:39;;;;;;;2.80;2.30;;;21.90;99.90;;;;;;4259079;27;20289;-78
2022/07/22 07:55:41;;;;;;;2.40;2.13;;;22.00;99.90;;;;;;4241869;28;20223;-77
2022/07/22 07:57:46;;;;;;;4.00;2.60;;;21.90;99.90;;;;;;4258221;27;20200;-78
2022/07/22 07:59:48;;;;;;;2.70;2.30;;;22.00;99.90;;;;;;4260718;27;21082;-78
2022/07/22 08:01:50;;;;;;;2.97;2.13;;;22.00;99.90;;;;;;4255221;27;20226;-78
2022/07/22 08:03:52;;;;;;;3.50;2.57;;;22.00;99.90;;;;;;4251946;27;20296;-77
2022/07/22 08:05:54;;;;;;;2.70;1.90;;;22.00;99.90;;;;;;4256848;27;20220;-78
2022/07/22 08:07:58;;;;;;;2.43;2.07;;;22.10;99.90;;;;;;4260892;27;20665;-78
2022/07/22 08:10:00;;;;;;;3.50;2.67;;;22.20;99.90;;;;;;4241719;28;20234;-76
2022/07/22 08:12:01;;;;;;;2.30;2.10;;;22.20;99.90;;;;;;4259832;27;20235;-77
2022/07/22 08:14:04;;;;;;;2.83;2.30;;;22.10;99.90;;;;;;4258429;27;20890;-78
2022/07/22 08:16:06;;;;;;;2.30;2.00;;;22.20;99.90;;;;;;4258398;27;20735;-77
2022/07/22 08:18:07;;;;;;;3.43;2.00;;;22.20;99.90;;;;;;4259230;27;20296;-78
2022/07/22 08:20:10;;;;;;;2.57;2.10;;;22.20;99.90;;;;;;4260074;27;20204;-78
2022/07/22 08:22:12;;;;;;;1.93;1.80;;;22.30;99.90;;;;;;4236707;28;20209;-77
2022/07/22 08:24:15;;;;;;;2.87;2.10;;;22.40;99.90;;;;;;4259514;27;20215;-77
2022/07/22 08:26:17;;;;;;;4.00;2.17;;;22.30;99.90;;;;;;4258737;27;20279;-76
2022/07/22 08:28:19;;;;;;;2.57;1.97;;;22.40;99.90;;;;;;4257402;27;20228;-76
2022/07/22 08:30:23;;;;;;;2.33;2.13;;;22.50;99.90;;;;;;4261808;27;20231;-76
2022/07/22 08:32:25;;;;;;;1.80;1.70;;;22.50;99.90;;;;;;4262926;27;20654;-78
2022/07/22 08:34:27;;;;;;;3.27;2.17;;;22.60;99.90;;;;;;4253192;27;20325;-77
2022/07/22 08:36:29;;;;;;;2.57;2.20;;;22.70;99.90;;;;;;4257539;27;20288;-78
2022/07/22 08:38:31;;;;;;;4.50;2.17;;;22.90;99.90;;;;;;4257780;27;20264;-77
2022/07/22 08:40:35;;;;;;;2.40;2.20;;;23.00;99.90;;;;;;4244421;27;20679;-77
2022/07/22 08:42:38;;;;;;;2.73;2.20;;;23.10;99.90;;;;;;4260471;27;20281;-77
2022/07/22 08:44:41;;;;;;;2.70;2.00;;;23.20;99.90;;;;;;4262460;27;20213;-77
2022/07/22 08:46:46;;;;;;;2.50;2.20;;;23.30;99.90;;;;;;4261253;27;20203;-77
2022/07/22 08:48:47;;;;;;;2.87;1.93;;;23.40;99.90;;;;;;4258301;27;20322;-78
2022/07/22 08:50:49;;;;;;;2.87;2.10;;;23.50;99.90;;;;;;4261448;27;20214;-76
2022/07/22 08:52:51;;;;;;;1.83;1.70;;;23.60;99.90;;;;;;4262407;27;20198;-77
2022/07/22 08:54:53;;;;;;;3.10;1.63;;;23.70;99.90;;;;;;4258129;27;20203;-76
2022/07/22 08:56:56;;;;;;;2.20;2.00;;;23.70;99.90;;;;;;4260000;27;20568;-76
2022/07/22 08:58:58;;;;;;;2.33;1.80;;;23.80;99.80;;;;;;4260293;27;20341;-78
2022/07/22 09:01:08;;;;;;;2.20;1.90;;;23.90;99.30;;;;;;4260342;27;20317;-76
2022/07/22 09:03:21;;;;;;;2.20;1.73;;;24.00;99.30;;;;;;4253034;27;20626;-76
2022/07/22 09:05:23;;;;;;;2.73;1.90;;;24.10;98.20;;;;;;4260996;27;20221;-75
2022/07/22 09:07:28;;;;;;;2.20;1.80;;;24.10;98.40;;;;;;4259350;27;20291;-73
2022/07/22 09:09:34;;;;;;;1.73;1.63;;;24.20;98.10;;;;;;4257128;27;20225;-71
2022/07/22 09:11:36;;;;;;;1.50;1.40;;;24.30;97.20;;;;;;4254939;27;20242;-72
2022/07/22 09:13:39;;;;;;;1.97;1.63;;;24.30;97.10;;;;;;4237102;27;20698;-72
2022/07/22 09:15:49;;;;;;;1.63;1.50;;;24.40;97.30;;;;;;4255502;27;20951;-72
2022/07/22 09:17:52;;;;;;;1.70;1.60;;;24.40;96.60;;;;;;4235411;27;20208;-72
2022/07/22 09:19:54;;;;;;;1.90;1.73;;;24.30;96.70;;;;;;4255890;27;20210;-72
2022/07/22 09:21:56;;;;;;;2.20;1.90;;;24.30;96.30;;;;;;4252556;27;20241;-73
2022/07/22 09:23:58;;;;;;;1.80;1.70;;;24.40;96.50;;;;;;4253801;27;20211;-72
2022/07/22 09:26:00;;;;;;;2.20;2.00;;;24.50;96.70;;;;;;4250279;27;20226;-75
2022/07/22 09:28:12;;;;;;;2.13;1.70;;;24.50;95.70;;;;;;4249306;27;20672;-71
2022/07/22 09:30:17;;;;;;;2.00;1.70;;;24.50;95.80;;;;;;4253973;27;20198;-74
2022/07/22 09:32:20;;;;;;;1.97;1.57;;;24.50;95.60;;;;;;4253895;27;20196;-72
2022/07/22 09:34:28;;;;;;;2.13;1.50;;;24.50;95.60;;;;;;4256694;27;20246;-72
2022/07/22 09:36:30;;;;;;;1.87;1.60;;;24.60;95.10;;;;;;4251497;27;20225;-72
2022/07/22 09:38:34;;;;;;;2.50;1.70;;;24.60;94.30;;;;;;4235393;27;20323;-73
2022/07/22 09:40:38;;;;;;;1.77;1.67;;;24.70;94.60;;;;;;4254230;27;20212;-72
2022/07/22 09:42:48;;;;;;;2.83;1.43;;;24.80;94.60;;;;;;4252284;27;20195;-72
2022/07/22 09:44:50;;;;;;;2.20;1.60;;;24.70;94.00;;;;;;4251222;27;20223;-72
2022/07/22 09:46:53;;;;;;;1.77;1.50;;;24.80;94.20;;;;;;4249094;27;20283;-73
2022/07/22 09:48:55;;;;;;;1.60;1.50;;;24.90;94.30;;;;;;4241005;27;20282;-73
2022/07/22 09:50:58;;;;;;;1.53;1.30;;;24.90;92.90;;;;;;4238791;27;20704;-73
2022/07/22 09:53:01;;;;;;;3.10;1.40;;;25.00;93.00;;;;;;4248423;27;20207;-73
2022/07/22 09:55:03;;;;;;;1.83;1.30;;;25.00;92.80;;;;;;4250486;27;20203;-73
2022/07/22 09:57:05;;;;;;;1.70;1.40;;;25.00;92.00;;;;;;4252775;27;20228;-73
2022/07/22 09:59:08;;;;;;;1.73;1.50;;;25.00;92.50;;;;;;4249592;27;20284;-73
2022/07/22 10:01:10;;;;;;;1.90;1.30;;;25.00;93.00;;;;;;4248005;27;20214;-77
2022/07/22 10:03:18;;;;;;;2.60;1.63;;;25.10;92.50;;;;;;4256487;27;20207;-74
2022/07/22 10:05:22;;;;;;;2.27;1.60;;;25.20;92.30;;;;;;4251933;27;20230;-75
2022/07/22 10:07:26;;;;;;;1.83;1.53;;;25.20;91.20;;;;;;4251985;27;20282;-75
2022/07/22 10:09:29;;;;;;;1.90;1.30;;;25.20;90.60;;;;;;4252053;27;20234;-73
2022/07/22 10:11:32;;;;;;;1.50;1.40;;;25.30;91.00;;;;;;4253637;27;20200;-74
2022/07/22 10:13:37;;;;;;;1.90;1.50;;;25.40;88.50;;;;;;4247331;27;20233;-75
2022/07/22 10:15:39;;;;;;;1.57;1.40;;;25.50;87.30;;;;;;4248766;27;20792;-72
2022/07/22 10:17:43;;;;;;;2.07;1.30;;;25.60;84.10;;;;;;4254254;27;20204;-72
2022/07/22 10:19:47;;;;;;;1.23;1.13;;;25.40;81.30;;;;;;4252151;27;20250;-74
2022/07/22 10:21:48;;;;;;;1.27;1.17;;;25.50;85.60;;;;;;4253902;27;20203;-72
2022/07/22 10:24:13;;;;;;;3.50;1.37;;;25.40;90.50;;;;;;4254940;27;20965;-75
2022/07/22 10:26:15;;;;;;;1.57;1.30;;;25.60;90.70;;;;;;4250152;27;20239;-78
2022/07/22 10:28:23;;;;;;;1.90;1.43;;;25.60;91.30;;;;;;4247848;27;20259;-77
2022/07/22 10:30:27;;;;;;;1.50;1.33;;;25.70;92.20;;;;;;4251421;27;20238;-76
2022/07/22 10:32:29;;;;;;;2.03;1.30;;;25.80;92.00;;;;;;4253325;27;20278;-76
2022/07/22 10:34:31;;;;;;;3.10;1.47;;;25.70;92.50;;;;;;4249888;27;20295;-78
2022/07/22 10:36:36;;;;;;;1.53;1.40;;;25.70;92.80;;;;;;4251925;27;20250;-76
2022/07/22 10:38:38;;;;;;;2.57;1.90;;;25.80;93.70;;;;;;4247568;27;20907;-76